Time;durP1;ratioP1;P1;durP2;ratioP2;P2;SDS_P1;SDS_P2;PMS_P1;PMS_P2;Temp;Humidity;BMP_temperature;BMP_pressure;BME280_temperature;BME280_humidity;BME280_pressure;Samples;Min_cycle;Max_cycle;Signal;HPM_P1;HPM_P2
2021/05/13 00:01:35;;;;;;;;;;;;;;;11.37;83.81;100318.43;128371;1101;62869;-75
2021/05/13 00:04:02;;;;;;;;;;;;;;;11.34;83.56;100322.27;128318;1101;62279;-75
2021/05/13 00:06:29;;;;;;;;;;;;;;;11.33;83.80;100319.81;128431;1101;62338;-75
2021/05/13 00:08:56;;;;;;;;;;;;;;;11.32;83.24;100316.31;128291;1101;62238;-76
2021/05/13 00:11:29;;;;;;;;;;;;;;;11.32;83.61;100318.97;128442;1101;62084;-76
2021/05/13 00:13:57;;;;;;;;;;;;;;;11.33;83.67;100314.51;128433;1101;61998;-76
2021/05/13 00:16:29;;;;;;;;;;;;;;;11.33;83.43;100312.66;128383;1101;62052;-76
2021/05/13 00:18:58;;;;;;;;;;;;;;;11.35;83.65;100313.30;128416;1101;62114;-77
2021/05/13 00:21:24;;;;;;;;;;;;;;;11.38;83.28;100315.56;128461;1101;62231;-76
2021/05/13 00:23:52;;;;;;;;;;;;;;;11.36;82.63;100309.62;128429;1101;62525;-75
2021/05/13 00:26:34;;;;;;;;;;;;;;;11.36;82.22;100309.62;128363;1101;62750;-75
2021/05/13 00:29:05;;;;;;;;;;;;;;;11.35;82.02;100310.64;128439;1101;63080;-75
2021/05/13 00:31:34;;;;;;;;;;;;;;;11.33;81.51;100309.20;128430;1101;62556;-75
2021/05/13 00:34:01;;;;;;;;;;;;;;;11.30;81.12;100305.06;128466;1101;62119;-76
2021/05/13 00:36:29;;;;;;;;;;;;;;;11.25;81.82;100286.23;128446;1101;62099;-76
2021/05/13 00:39:04;;;;;;;;;;;;;;;11.20;81.64;100283.33;128416;1101;62207;-75
2021/05/13 00:41:31;;;;;;;;;;;;;;;11.16;81.53;100287.38;128350;1101;62332;-75
2021/05/13 00:43:58;;;;;;;;;;;;;;;11.11;80.90;100281.80;128417;1101;62068;-75
2021/05/13 00:46:25;;;;;;;;;;;;;;;11.04;82.31;100276.42;128396;1101;62103;-75
2021/05/13 00:49:00;;;;;;;;;;;;;;;11.00;81.75;100270.66;128444;1101;62114;-75
2021/05/13 00:51:27;;;;;;;;;;;;;;;10.93;80.99;100268.95;128411;1101;63012;-75
2021/05/13 00:53:55;;;;;;;;;;;;;;;10.87;81.23;100278.48;128420;1101;62544;-75
2021/05/13 00:56:23;;;;;;;;;;;;;;;10.83;80.71;100282.52;128380;1101;62367;-75
2021/05/13 00:58:51;;;;;;;;;;;;;;;10.78;80.52;100283.08;128422;1101;62213;-75
2021/05/13 01:01:20;;;;;;;;;;;;;;;10.76;80.47;100290.40;128427;1101;62378;-76
2021/05/13 01:03:47;;;;;;;;;;;;;;;10.72;80.34;100288.31;128401;1101;62057;-75
2021/05/13 01:06:14;;;;;;;;;;;;;;;10.68;80.57;100279.89;128410;1101;62120;-75
2021/05/13 01:08:42;;;;;;;;;;;;;;;10.67;80.95;100288.02;128423;1101;63027;-75
2021/05/13 01:11:12;;;;;;;;;;;;;;;10.64;80.83;100285.75;128428;1101;62125;-76
2021/05/13 01:13:49;;;;;;;;;;;;;;;10.63;80.37;100292.09;128449;1101;62184;-76
2021/05/13 01:16:46;;;;;;;;;;;;;;;10.58;81.20;100290.81;128388;1101;62046;-76
2021/05/13 01:19:16;;;;;;;;;;;;;;;10.60;80.93;100294.09;128395;1101;62387;-75
2021/05/13 01:21:43;;;;;;;;;;;;;;;10.59;80.63;100281.02;128451;1101;62102;-76
2021/05/13 01:24:11;;;;;;;;;;;;;;;10.57;80.37;100285.68;128427;1101;62042;-75
2021/05/13 01:26:42;;;;;;;;;;;;;;;10.56;80.07;100276.91;128387;1100;62427;-76
2021/05/13 01:29:10;;;;;;;;;;;;;;;10.56;80.49;100274.25;128410;1101;62208;-75
2021/05/13 01:31:38;;;;;;;;;;;;;;;10.58;80.26;100274.89;128421;1101;62137;-76
2021/05/13 01:34:06;;;;;;;;;;;;;;;10.57;80.46;100270.58;128404;1101;62108;-75
2021/05/13 01:36:34;;;;;;;;;;;;;;;10.56;80.21;100263.64;128150;1101;62647;-76
2021/05/13 01:39:01;;;;;;;;;;;;;;;10.54;80.25;100263.00;128450;1101;62257;-76
2021/05/13 01:41:30;;;;;;;;;;;;;;;10.52;79.57;100265.02;128443;1101;62430;-75
2021/05/13 01:43:57;;;;;;;;;;;;;;;10.50;79.74;100261.73;128391;1101;62266;-75
2021/05/13 01:46:24;;;;;;;;;;;;;;;10.49;80.16;100265.38;128391;1101;63503;-76
2021/05/13 01:48:51;;;;;;;;;;;;;;;10.48;79.55;100266.39;128420;1101;62450;-76
2021/05/13 01:51:19;;;;;;;;;;;;;;;10.47;79.75;100263.92;128428;1101;61984;-76
2021/05/13 01:53:46;;;;;;;;;;;;;;;10.44;80.63;100256.34;128387;1101;62225;-75
2021/05/13 01:56:12;;;;;;;;;;;;;;;10.43;80.68;100270.59;128384;1101;62517;-76
2021/05/13 01:58:40;;;;;;;;;;;;;;;10.42;80.57;100258.36;128407;1101;62268;-74
2021/05/13 02:01:10;;;;;;;;;;;;;;;10.36;80.69;100252.77;128398;1101;62111;-75
2021/05/13 02:03:37;;;;;;;;;;;;;;;10.40;81.08;100261.19;128708;1102;61997;-75
2021/05/13 02:06:04;;;;;;;;;;;;;;;10.41;81.47;100260.16;128691;1101;62130;-75
2021/05/13 02:08:31;;;;;;;;;;;;;;;10.38;81.39;100257.90;128450;1101;62174;-77
2021/05/13 02:10:58;;;;;;;;;;;;;;;10.38;81.78;100263.20;128399;1101;62124;-77
2021/05/13 02:13:25;;;;;;;;;;;;;;;10.40;81.34;100261.19;128220;1101;62077;-77
2021/05/13 02:15:52;;;;;;;;;;;;;;;10.41;81.37;100257.52;128433;1101;61906;-76
2021/05/13 02:18:20;;;;;;;;;;;;;;;10.40;82.26;100264.66;128409;1101;62111;-76
2021/05/13 02:20:47;;;;;;;;;;;;;;;10.41;81.85;100252.20;128414;1101;62126;-76
2021/05/13 02:23:14;;;;;;;;;;;;;;;10.40;82.37;100247.93;128426;1101;62134;-76
2021/05/13 02:25:46;;;;;;;;;;;;;;;10.40;81.64;100247.93;128431;1101;62190;-76
2021/05/13 02:28:14;;;;;;;;;;;;;;;10.40;81.67;100250.58;128412;1102;62092;-76
2021/05/13 02:30:41;;;;;;;;;;;;;;;10.39;82.37;100243.62;128388;1101;62138;-76
2021/05/13 02:33:08;;;;;;;;;;;;;;;10.37;81.98;100241.17;128376;1101;63169;-76
2021/05/13 02:35:35;;;;;;;;;;;;;;;10.38;81.53;100241.98;128415;1101;62088;-76
2021/05/13 02:38:02;;;;;;;;;;;;;;;10.38;81.27;100241.98;128423;1101;62614;-76
2021/05/13 02:40:29;;;;;;;;;;;;;;;10.40;81.84;100232.02;128454;1101;62057;-76
2021/05/13 02:42:56;;;;;;;;;;;;;;;10.40;81.52;100234.67;128466;1101;62189;-76
2021/05/13 02:45:23;;;;;;;;;;;;;;;10.40;81.52;100234.67;128373;1101;62358;-76
2021/05/13 02:47:51;;;;;;;;;;;;;;;10.38;81.62;100234.03;128441;1101;62259;-76
2021/05/13 02:50:19;;;;;;;;;;;;;;;10.37;81.17;100235.02;128403;1101;62532;-76
2021/05/13 02:52:46;;;;;;;;;;;;;;;10.35;81.61;100239.72;128454;1101;62213;-76
2021/05/13 02:55:13;;;;;;;;;;;;;;;10.33;81.40;100239.08;128334;1101;62182;-75
2021/05/13 02:57:40;;;;;;;;;;;;;;;10.31;82.08;100231.30;128395;1101;62237;-75
2021/05/13 03:00:27;;;;;;;;;;;;;;;10.27;81.79;100235.30;128451;1101;62309;-76
2021/05/13 03:02:55;;;;;;;;;;;;;;;10.24;82.13;100224.23;128422;1101;62552;-75
2021/05/13 03:05:27;;;;;;;;;;;;;;;10.23;81.74;100222.59;128430;1101;62457;-76
2021/05/13 03:08:03;;;;;;;;;;;;;;;10.19;82.61;100228.25;128458;1101;62879;-75
2021/05/13 03:13:09;;;;;;;;;;;;;;;10.15;82.60;100229.63;128377;1101;62492;-76
2021/05/13 03:15:36;;;;;;;;;;;;;;;10.13;83.28;100228.98;128405;1101;62560;-75
2021/05/13 03:18:03;;;;;;;;;;;;;;;10.13;83.01;100234.28;128416;1101;62298;-75
2021/05/13 03:20:38;;;;;;;;;;;;;;;10.13;83.26;100222.86;128401;1101;62203;-75
2021/05/13 03:23:08;;;;;;;;;;;;;;;10.10;83.05;100232.02;128391;1101;62501;-75
2021/05/13 03:25:37;;;;;;;;;;;;;;;10.08;82.62;100219.95;128450;1101;62185;-75
2021/05/13 03:28:08;;;;;;;;;;;;;;;10.06;82.23;100214.83;128392;1101;62256;-75
2021/05/13 03:30:40;;;;;;;;;;;;;;;10.04;81.87;100208.08;128382;1101;62155;-76
2021/05/13 03:33:08;;;;;;;;;;;;;;;10.00;82.19;100213.72;128460;1101;62094;-75
2021/05/13 03:35:35;;;;;;;;;;;;;;;9.96;81.60;100212.44;128411;1101;62437;-75
2021/05/13 03:38:03;;;;;;;;;;;;;;;9.94;80.99;100210.98;128453;1101;62035;-75
2021/05/13 03:40:31;;;;;;;;;;;;;;;9.93;81.61;100206.70;128437;1101;62282;-75
2021/05/13 03:42:59;;;;;;;;;;;;;;;9.93;81.07;100198.76;128464;1101;62260;-75
2021/05/13 03:45:27;;;;;;;;;;;;;;;9.92;80.65;100207.70;128401;1101;62637;-75
2021/05/13 03:47:54;;;;;;;;;;;;;;;9.91;81.00;100204.23;128376;1101;62604;-75
2021/05/13 03:50:20;;;;;;;;;;;;;;;9.93;81.19;100207.52;128296;1101;62835;-76
2021/05/13 03:52:47;;;;;;;;;;;;;;;9.94;81.21;100213.64;128448;1101;62267;-75
2021/05/13 03:55:14;;;;;;;;;;;;;;;9.94;81.43;100203.03;128372;1102;62754;-75
2021/05/13 03:57:42;;;;;;;;;;;;;;;9.92;81.59;100197.91;128403;1101;62048;-75
2021/05/13 04:00:12;;;;;;;;;;;;;;;9.92;80.92;100197.91;128430;1101;63561;-75
2021/05/13 04:02:39;;;;;;;;;;;;;;;9.94;81.14;100192.44;128423;1101;62059;-76
2021/05/13 04:05:07;;;;;;;;;;;;;;;9.92;80.99;100189.97;128419;1101;62153;-76
2021/05/13 04:07:36;;;;;;;;;;;;;;;9.92;80.56;100189.15;128383;1101;62791;-76
2021/05/13 04:10:04;;;;;;;;;;;;;;;9.90;81.13;100186.70;128452;1101;62859;-74
2021/05/13 04:12:31;;;;;;;;;;;;;;;9.89;81.14;100185.05;128395;1101;63025;-76
2021/05/13 04:14:59;;;;;;;;;;;;;;;9.90;80.60;100175.27;128433;1101;62160;-75
2021/05/13 04:17:26;;;;;;;;;;;;;;;9.90;80.96;100175.27;128454;1101;62303;-75
2021/05/13 04:19:53;;;;;;;;;;;;;;;9.90;81.42;100177.91;128419;1101;62214;-75
2021/05/13 04:22:19;;;;;;;;;;;;;;;9.90;81.61;100170.81;128419;1101;62208;-77
2021/05/13 04:24:46;;;;;;;;;;;;;;;9.91;81.17;100166.33;128412;1101;62214;-75
2021/05/13 04:27:13;;;;;;;;;;;;;;;9.93;81.41;100162.48;128414;1101;62039;-74
2021/05/13 04:29:40;;;;;;;;;;;;;;;9.96;82.00;100159.45;128403;1101;62183;-74
2021/05/13 04:32:07;;;;;;;;;;;;;;;9.99;81.40;100163.58;128407;1101;62244;-74
2021/05/13 04:34:34;;;;;;;;;;;;;;;10.00;81.55;100159.91;128456;1101;62031;-73
2021/05/13 04:37:01;;;;;;;;;;;;;;;10.02;81.54;100152.60;128435;1101;62083;-74
2021/05/13 04:39:28;;;;;;;;;;;;;;;10.04;81.40;100147.13;128434;1101;62148;-75
2021/05/13 04:41:54;;;;;;;;;;;;;;;10.06;81.08;100148.58;128428;1101;63086;-74
2021/05/13 04:44:21;;;;;;;;;;;;;;;10.09;81.35;100142.89;128393;1101;62134;-75
2021/05/13 04:46:57;;;;;;;;;;;;;;;10.14;80.94;100145.02;128422;1101;63284;-74
2021/05/13 04:49:25;;;;;;;;;;;;;;;10.18;81.43;100136.50;128476;1101;62124;-74
2021/05/13 04:51:53;;;;;;;;;;;;;;;10.23;80.66;100138.59;128414;1101;62096;-74
2021/05/13 04:54:20;;;;;;;;;;;;;;;10.25;81.24;100131.27;128439;1101;62363;-74
2021/05/13 04:56:47;;;;;;;;;;;;;;;10.28;80.67;100135.38;128467;1101;62425;-75
2021/05/13 04:59:13;;;;;;;;;;;;;;;10.31;80.65;100135.05;128430;1101;62076;-75
2021/05/13 05:01:40;;;;;;;;;;;;;;;10.30;80.35;100128.09;128392;1101;62114;-76
2021/05/13 05:04:07;;;;;;;;;;;;;;;10.32;80.00;100120.77;128419;1101;62664;-76
2021/05/13 05:06:34;;;;;;;;;;;;;;;10.33;79.79;100117.13;128361;1101;62655;-76
2021/05/13 05:09:05;;;;;;;;;;;;;;;10.32;79.41;100129.53;128460;1101;62549;-75
2021/05/13 05:11:31;;;;;;;;;;;;;;;10.32;79.81;100121.58;128447;1101;62196;-76
2021/05/13 05:13:59;;;;;;;;;;;;;;;10.37;80.13;100113.91;128406;1101;62270;-75
2021/05/13 05:16:26;;;;;;;;;;;;;;;10.40;79.85;100120.66;128433;1101;62369;-76
2021/05/13 05:18:52;;;;;;;;;;;;;;;10.46;79.99;100116.44;128415;1101;62097;-76
2021/05/13 05:21:19;;;;;;;;;;;;;;;10.45;78.71;100115.60;128460;1101;62269;-75
2021/05/13 05:23:46;;;;;;;;;;;;;;;10.51;78.91;100120.16;128462;1101;61971;-76
2021/05/13 05:26:13;;;;;;;;;;;;;;;10.57;78.45;100121.23;128397;1101;62153;-75
2021/05/13 05:28:40;;;;;;;;;;;;;;;10.61;77.84;100130.47;128430;1101;62268;-76
2021/05/13 05:31:07;;;;;;;;;;;;;;;10.64;77.93;100122.11;128421;1101;62345;-75
2021/05/13 05:33:34;;;;;;;;;;;;;;;10.66;78.04;100121.94;128437;1101;62098;-75
2021/05/13 05:36:01;;;;;;;;;;;;;;;10.68;77.43;100119.91;128375;1101;63943;-75
2021/05/13 05:38:28;;;;;;;;;;;;;;;10.71;76.63;100124.83;128408;1101;61969;-76
2021/05/13 05:40:56;;;;;;;;;;;;;;;10.75;76.21;100115.48;128385;1101;62270;-76
2021/05/13 05:43:22;;;;;;;;;;;;;;;10.79;76.59;100112.25;128446;1101;62102;-76
2021/05/13 05:45:49;;;;;;;;;;;;;;;10.86;76.86;100116.80;128413;1101;62298;-76
2021/05/13 05:48:16;;;;;;;;;;;;;;;10.92;76.64;100110.73;128424;1101;63444;-76
2021/05/13 05:50:43;;;;;;;;;;;;;;;11.01;76.51;100106.95;128400;1101;62329;-76
2021/05/13 05:53:11;;;;;;;;;;;;;;;11.07;75.14;100105.34;128418;1101;62400;-76
2021/05/13 05:55:40;;;;;;;;;;;;;;;11.09;74.89;100104.13;128392;1101;62106;-76
2021/05/13 05:58:08;;;;;;;;;;;;;;;11.13;73.46;100109.88;128378;1101;62079;-76
2021/05/13 06:00:35;;;;;;;;;;;;;;;11.18;73.98;100104.83;128243;1101;62701;-76
2021/05/13 06:03:02;;;;;;;;;;;;;;;11.22;74.13;100100.78;128392;1101;62206;-76
2021/05/13 06:05:30;;;;;;;;;;;;;;;11.29;74.94;100098.16;128408;1101;62221;-75
2021/05/13 06:08:01;;;;;;;;;;;;;;;11.37;73.97;100098.02;128552;1101;62318;-76
2021/05/13 06:10:28;;;;;;;;;;;;;;;11.47;73.86;100097.65;128389;1101;62098;-75
2021/05/13 06:12:55;;;;;;;;;;;;;;;11.55;73.35;100100.15;128389;1101;62846;-76
2021/05/13 06:15:22;;;;;;;;;;;;;;;11.65;73.46;100105.94;128385;1101;62162;-75
2021/05/13 06:17:49;;;;;;;;;;;;;;;11.73;72.75;100105.77;128359;1101;62188;-76
2021/05/13 06:20:22;;;;;;;;;;;;;;;11.73;71.69;100100.46;128403;1101;61981;-76
2021/05/13 06:22:49;;;;;;;;;;;;;;;11.75;71.38;100101.08;128414;1101;62338;-76
2021/05/13 06:25:16;;;;;;;;;;;;;;;11.81;71.02;100102.92;128385;1101;62769;-76
2021/05/13 06:27:43;;;;;;;;;;;;;;;11.90;71.41;100097.48;128388;1101;62102;-76
2021/05/13 06:30:11;;;;;;;;;;;;;;;11.94;69.92;100099.56;128409;1101;62652;-75
2021/05/13 06:32:38;;;;;;;;;;;;;;;11.95;68.64;100095.88;128424;1101;62062;-75
2021/05/13 06:35:05;;;;;;;;;;;;;;;11.95;68.73;100089.75;128417;1101;62355;-76
2021/05/13 06:37:32;;;;;;;;;;;;;;;12.01;68.89;100096.93;128318;1101;63837;-78
2021/05/13 06:39:59;;;;;;;;;;;;;;;12.09;69.45;100090.59;128362;1101;62045;-75
2021/05/13 06:42:26;;;;;;;;;;;;;;;12.18;69.02;100090.23;128404;1101;62465;-75
2021/05/13 06:44:52;;;;;;;;;;;;;;;12.29;67.85;100095.99;128405;1101;62310;-77
2021/05/13 06:47:19;;;;;;;;;;;;;;;12.40;68.26;100096.20;128373;1101;63934;-77
2021/05/13 06:49:46;;;;;;;;;;;;;;;12.52;68.69;100090.31;128398;1101;62732;-77
2021/05/13 06:52:13;;;;;;;;;;;;;;;12.60;68.67;100090.94;128418;1101;61999;-76
2021/05/13 06:54:40;;;;;;;;;;;;;;;12.72;68.28;100093.80;128369;1101;62509;-76
2021/05/13 06:57:07;;;;;;;;;;;;;;;12.80;68.40;100087.47;128309;1101;62836;-77
2021/05/13 06:59:34;;;;;;;;;;;;;;;12.91;67.37;100091.36;128334;1101;62197;-76
2021/05/13 07:02:01;;;;;;;;;;;;;;;13.03;67.67;100087.05;128336;1101;62120;-76
2021/05/13 07:04:28;;;;;;;;;;;;;;;13.14;66.57;100088.27;128199;1101;64945;-75
2021/05/13 07:06:56;;;;;;;;;;;;;;;13.21;65.61;100095.21;128225;1101;62656;-76
2021/05/13 07:09:24;;;;;;;;;;;;;;;13.31;65.54;100089.50;128267;1101;62536;-75
2021/05/13 07:11:51;;;;;;;;;;;;;;;13.39;64.46;100091.95;128270;1101;62328;-76
2021/05/13 07:14:21;;;;;;;;;;;;;;;13.45;63.71;100085.80;128301;1101;62954;-76
2021/05/13 07:16:51;;;;;;;;;;;;;;;13.52;64.60;100082.30;128158;1101;63116;-76
2021/05/13 07:19:19;;;;;;;;;;;;;;;13.59;64.04;100080.42;128140;1101;64397;-73
2021/05/13 07:21:46;;;;;;;;;;;;;;;13.62;63.95;100088.83;128241;1101;63123;-73
2021/05/13 07:24:13;;;;;;;;;;;;;;;13.69;64.20;100079.99;128340;1101;62970;-74
2021/05/13 07:26:41;;;;;;;;;;;;;;;13.78;63.23;100079.53;128295;1101;62251;-74
2021/05/13 07:29:08;;;;;;;;;;;;;;;13.84;63.17;100078.69;128285;1101;62457;-73
2021/05/13 07:31:35;;;;;;;;;;;;;;;13.91;62.28;100075.98;128360;1101;62224;-74
2021/05/13 07:34:03;;;;;;;;;;;;;;;14.03;62.36;100082.30;128410;1101;62338;-74
2021/05/13 07:36:30;;;;;;;;;;;;;;;14.08;60.96;100084.33;128455;1101;63821;-74
2021/05/13 07:38:56;;;;;;;;;;;;;;;14.15;60.99;100079.76;128384;1101;63242;-74
2021/05/13 07:41:23;;;;;;;;;;;;;;;14.24;60.01;100085.69;128362;1101;64035;-74
2021/05/13 07:43:52;;;;;;;;;;;;;;;14.33;60.78;100080.92;128422;1101;62226;-74
2021/05/13 07:46:20;;;;;;;;;;;;;;;14.48;60.29;100084.91;128430;1101;62206;-74
2021/05/13 07:48:52;;;;;;;;;;;;;;;14.61;60.26;100080.55;128430;1101;62047;-74
2021/05/13 07:51:20;;;;;;;;;;;;;;;14.64;59.36;100088.95;128460;1101;62993;-74
2021/05/13 07:53:47;;;;;;;;;;;;;;;14.64;58.72;100083.61;128434;1101;62219;-73
2021/05/13 07:56:14;;;;;;;;;;;;;;;14.60;58.09;100090.42;128401;1101;62063;-73
2021/05/13 07:58:41;;;;;;;;;;;;;;;14.65;58.60;100085.23;128403;1101;62109;-73
2021/05/13 08:01:08;;;;;;;;;;;;;;;14.71;58.39;100082.75;128450;1101;62658;-73
2021/05/13 08:03:36;;;;;;;;;;;;;;;14.84;59.38;100083.45;128335;1101;62159;-73
2021/05/13 08:06:03;;;;;;;;;;;;;;;14.85;55.97;100084.26;128326;1101;61973;-74
2021/05/13 08:08:33;;;;;;;;;;;;;;;14.90;57.63;100076.43;128350;1101;63114;-74
2021/05/13 08:11:00;;;;;;;;;;;;;;;14.97;56.56;100079.84;128322;1101;62247;-74
2021/05/13 08:13:29;;;;;;;;;;;;;;;14.98;54.76;100078.83;128411;1101;62459;-74
2021/05/13 08:15:55;;;;;;;;;;;;;;;14.92;54.27;100085.04;128368;1101;62503;-74
2021/05/13 08:18:22;;;;;;;;;;;;;;;14.83;54.74;100076.48;128350;1101;62038;-74
2021/05/13 08:20:49;;;;;;;;;;;;;;;14.86;54.07;100078.70;128334;1101;62552;-73
2021/05/13 08:23:16;;;;;;;;;;;;;;;14.91;53.90;100078.05;128365;1101;62080;-74
2021/05/13 08:25:43;;;;;;;;;;;;;;;14.87;52.45;100076.84;128362;1101;62302;-73
2021/05/13 08:28:10;;;;;;;;;;;;;;;14.84;53.07;100087.98;128359;1101;62195;-74
2021/05/13 08:30:37;;;;;;;;;;;;;;;15.00;55.16;100066.07;128124;1101;64133;-74
2021/05/13 08:33:04;;;;;;;;;;;;;;;15.18;54.31;100077.83;128373;1101;61824;-74
2021/05/13 08:35:31;;;;;;;;;;;;;;;15.33;53.80;100075.61;128374;1101;62274;-74
2021/05/13 08:37:58;;;;;;;;;;;;;;;15.41;52.44;100072.66;128285;1101;64127;-73
2021/05/13 08:40:25;;;;;;;;;;;;;;;15.52;53.59;100067.61;128225;1101;62351;-73
2021/05/13 08:42:51;;;;;;;;;;;;;;;15.64;52.58;100061.30;128233;1101;63158;-74
2021/05/13 08:45:19;;;;;;;;;;;;;;;15.84;52.42;100076.31;128301;1101;62323;-74
2021/05/13 08:47:49;;;;;;;;;;;;;;;15.90;50.53;100065.52;128305;1101;62305;-74
2021/05/13 08:50:17;;;;;;;;;;;;;;;16.01;49.65;100057.78;128394;1101;62108;-74
2021/05/13 08:52:46;;;;;;;;;;;;;;;16.21;49.54;100054.82;128300;1101;62699;-74
2021/05/13 08:55:15;;;;;;;;;;;;;;;16.38;48.08;100065.69;128379;1102;62476;-74
2021/05/13 08:57:43;;;;;;;;;;;;;;;16.48;47.92;100060.61;128432;1101;62949;-74
2021/05/13 09:00:10;;;;;;;;;;;;;;;16.52;48.22;100061.78;128321;1101;62257;-75
2021/05/13 09:02:37;;;;;;;;;;;;;;;16.64;47.30;100062.63;128134;1102;62341;-76
2021/05/13 09:05:04;;;;;;;;;;;;;;;16.50;45.60;100051.30;128274;1101;64675;-74
2021/05/13 09:07:32;;;;;;;;;;;;;;;16.47;44.64;100057.12;128366;1101;62190;-76
2021/05/13 09:09:59;;;;;;;;;;;;;;;16.52;45.31;100056.42;128362;1101;64091;-74
2021/05/13 09:12:30;;;;;;;;;;;;;;;16.64;45.57;100062.63;128321;1101;62281;-79
2021/05/13 09:15:03;;;;;;;;;;;;;;;16.68;46.21;100045.05;128377;1101;62074;-77
2021/05/13 09:17:30;;;;;;;;;;;;;;;16.92;46.70;100042.42;128366;1101;62870;-78
2021/05/13 09:19:57;;;;;;;;;;;;;;;17.02;44.67;100042.66;128382;1101;62611;-77
2021/05/13 09:22:25;;;;;;;;;;;;;;;17.16;44.76;100050.45;128391;1101;62003;-78
2021/05/13 09:24:57;;;;;;;;;;;;;;;17.28;45.86;100037.86;128427;1101;62564;-74
2021/05/13 09:27:26;;;;;;;;;;;;;;;17.41;43.13;100040.28;128405;1101;62513;-76
2021/05/13 09:30:01;;;;;;;;;;;;;;;17.57;44.36;100035.23;128361;1101;64108;-76
2021/05/13 09:32:27;;;;;;;;;;;;;;;17.70;44.29;100038.47;128325;1101;62430;-77
2021/05/13 09:34:54;;;;;;;;;;;;;;;17.85;43.57;100037.14;128369;1101;62432;-77
2021/05/13 09:37:34;;;;;;;;;;;;;;;17.97;42.82;100029.87;128417;1101;61965;-77
2021/05/13 09:40:01;;;;;;;;;;;;;;;18.20;42.71;100034.31;128406;1101;62403;-77
2021/05/13 09:42:28;;;;;;;;;;;;;;;18.37;42.31;100034.34;128301;1101;64073;-77
2021/05/13 09:44:55;;;;;;;;;;;;;;;18.44;42.00;100028.81;128366;1101;62362;-77
2021/05/13 09:47:26;;;;;;;;;;;;;;;18.49;40.74;100032.41;128421;1101;63248;-78
2021/05/13 09:49:54;;;;;;;;;;;;;;;18.43;39.67;100037.94;128325;1101;63289;-77
2021/05/13 09:52:40;;;;;;;;;;;;;;;18.41;40.98;100034.68;128355;1101;62347;-78
2021/05/13 09:55:12;;;;;;;;;;;;;;;18.54;42.07;100028.98;128454;1101;63206;-77
2021/05/13 09:57:40;;;;;;;;;;;;;;;18.63;41.33;100040.94;128411;1101;62471;-77
2021/05/13 10:00:08;;;;;;;;;;;;;;;18.73;42.27;100035.73;128407;1101;62147;-77
2021/05/13 10:02:36;;;;;;;;;;;;;;;18.87;42.22;100024.67;128437;1101;62188;-77
2021/05/13 10:05:04;;;;;;;;;;;;;;;18.84;40.36;100027.86;128280;1101;62040;-78
2021/05/13 10:07:31;;;;;;;;;;;;;;;18.80;39.71;100026.73;128400;1101;62852;-78
2021/05/13 10:09:58;;;;;;;;;;;;;;;18.76;40.93;100026.36;128374;1101;62246;-77
2021/05/13 10:12:27;;;;;;;;;;;;;;;18.78;42.19;100021.59;128407;1101;62974;-77
2021/05/13 10:14:54;;;;;;;;;;;;;;;18.78;41.03;100023.44;128437;1101;62135;-77
2021/05/13 10:17:22;;;;;;;;;;;;;;;18.59;41.47;100036.30;128476;1101;62079;-77
2021/05/13 10:19:51;;;;;;;;;;;;;;;18.63;42.57;100029.39;128458;1101;62828;-78
2021/05/13 10:22:19;;;;;;;;;;;;;;;18.70;43.14;100030.03;128428;1101;62102;-74
2021/05/13 10:24:46;;;;;;;;;;;;;;;18.86;43.58;100021.17;128393;1101;62388;-76
2021/05/13 10:27:14;;;;;;;;;;;;;;;19.14;42.95;100012.16;128426;1101;62191;-75
2021/05/13 10:29:41;;;;;;;;;;;;;;;19.42;42.85;100014.94;128474;1101;62201;-76
2021/05/13 10:32:18;;;;;;;;;;;;;;;19.67;41.51;100019.81;128442;1101;62291;-76
2021/05/13 10:34:49;;;;;;;;;;;;;;;19.60;39.97;100019.20;128448;1101;62279;-76
2021/05/13 10:37:29;;;;;;;;;;;;;;;19.46;40.03;99999.92;128436;1101;62276;-76
2021/05/13 10:40:24;;;;;;;;;;;;;;;19.49;40.84;100002.94;128460;1101;62419;-75
2021/05/13 10:43:01;;;;;;;;;;;;;;;19.56;39.95;100000.86;128447;1101;62005;-76
2021/05/13 10:45:28;;;;;;;;;;;;;;;19.59;40.75;99998.73;128433;1101;62937;-75
2021/05/13 10:48:08;;;;;;;;;;;;;;;19.64;40.96;99999.61;128453;1101;62442;-75
2021/05/13 10:50:41;;;;;;;;;;;;;;;19.60;41.56;99997.68;128475;1101;62362;-75
2021/05/13 10:53:26;;;;;;;;;;;;;;;19.64;41.18;99998.80;128432;1101;62096;-76
2021/05/13 10:56:12;;;;;;;;;;;;;;;19.72;39.71;99996.51;128452;1101;62079;-75
2021/05/13 10:58:51;;;;;;;;;;;;;;;19.83;38.42;99985.86;128442;1101;63739;-75
2021/05/13 11:01:24;;;;;;;;;;;;;;;19.91;38.75;99994.28;128408;1101;62106;-75
2021/05/13 11:04:10;;;;;;;;;;;;;;;19.96;38.74;99998.91;128408;1101;62519;-75
2021/05/13 11:06:44;;;;;;;;;;;;;;;20.03;37.93;99990.62;128452;1101;61659;-75
2021/05/13 11:09:11;;;;;;;;;;;;;;;20.09;39.17;100001.17;128460;1101;62093;-75
2021/05/13 11:11:56;;;;;;;;;;;;;;;20.23;39.76;99990.81;128434;1101;62135;-75
2021/05/13 11:14:25;;;;;;;;;;;;;;;20.37;37.69;99988.48;128409;1101;62259;-74
2021/05/13 11:16:55;;;;;;;;;;;;;;;20.46;38.30;99994.22;128458;1101;62090;-74
2021/05/13 11:19:23;;;;;;;;;;;;;;;20.62;38.98;99984.41;128404;1101;62657;-75
2021/05/13 11:21:54;;;;;;;;;;;;;;;20.72;37.07;99990.68;128416;1101;62320;-75
2021/05/13 11:24:21;;;;;;;;;;;;;;;20.67;36.03;99989.83;128422;1101;62714;-75
2021/05/13 11:26:54;;;;;;;;;;;;;;;20.46;37.27;99989.63;128446;1101;62702;-75
2021/05/13 11:29:21;;;;;;;;;;;;;;;20.32;36.09;99983.08;128451;1101;62333;-75
2021/05/13 11:31:49;;;;;;;;;;;;;;;20.25;35.95;99980.59;128440;1101;63002;-75
2021/05/13 11:34:18;;;;;;;;;;;;;;;20.20;34.98;99985.12;128462;1101;62091;-75
2021/05/13 11:36:46;;;;;;;;;;;;;;;20.21;35.79;99986.73;128431;1101;62754;-75
2021/05/13 11:39:17;;;;;;;;;;;;;;;20.26;34.10;99982.20;128432;1101;62094;-75
2021/05/13 11:41:46;;;;;;;;;;;;;;;20.33;35.44;99980.10;128458;1101;62120;-76
2021/05/13 11:44:13;;;;;;;;;;;;;;;20.52;36.28;99979.72;128483;1101;62089;-76
2021/05/13 11:46:40;;;;;;;;;;;;;;;20.70;37.07;99984.73;128394;1101;62254;-76
2021/05/13 11:49:07;;;;;;;;;;;;;;;20.83;35.56;99982.66;128424;1101;62011;-75
2021/05/13 11:51:36;;;;;;;;;;;;;;;20.70;32.88;99982.04;128380;1101;63220;-76
2021/05/13 11:54:04;;;;;;;;;;;;;;;20.49;34.18;99977.55;128422;1101;62171;-76
2021/05/13 11:56:32;;;;;;;;;;;;;;;20.47;35.14;99979.69;128374;1101;63580;-74
2021/05/13 11:59:03;;;;;;;;;;;;;;;20.60;34.22;99971.19;128412;1101;62753;-75
2021/05/13 12:01:31;;;;;;;;;;;;;;;20.72;34.14;99973.67;128151;1101;62287;-75
2021/05/13 12:04:00;;;;;;;;;;;;;;;20.88;34.28;99963.81;128407;1101;62657;-75
2021/05/13 12:06:27;;;;;;;;;;;;;;;21.04;34.89;99962.83;128424;1101;61662;-76
2021/05/13 12:08:59;;;;;;;;;;;;;;;21.05;33.14;99969.83;128403;1101;62612;-74
2021/05/13 12:11:27;;;;;;;;;;;;;;;21.14;34.68;99960.16;128408;1101;62178;-75
2021/05/13 12:13:55;;;;;;;;;;;;;;;21.17;34.36;99962.34;128452;1101;62146;-75
2021/05/13 12:16:23;;;;;;;;;;;;;;;21.23;33.78;99962.34;128445;1101;62088;-75
2021/05/13 12:18:52;;;;;;;;;;;;;;;21.11;32.93;99952.60;128472;1101;62554;-75
2021/05/13 12:21:19;;;;;;;;;;;;;;;21.15;33.23;99975.28;128456;1101;62057;-75
2021/05/13 12:23:47;;;;;;;;;;;;;;;21.25;34.54;99961.03;128441;1101;63415;-74
2021/05/13 12:26:25;;;;;;;;;;;;;;;21.30;33.61;99962.94;128424;1101;62230;-75
2021/05/13 12:28:53;;;;;;;;;;;;;;;21.41;33.09;99953.80;128427;1101;62723;-75
2021/05/13 12:31:30;;;;;;;;;;;;;;;21.45;33.17;99957.63;128439;1101;62450;-75
2021/05/13 12:34:01;;;;;;;;;;;;;;;21.38;32.56;99967.83;128426;1101;62194;-75
2021/05/13 12:36:28;;;;;;;;;;;;;;;21.36;32.55;99959.98;128435;1101;62295;-74
2021/05/13 12:38:55;;;;;;;;;;;;;;;21.35;31.67;99952.16;128407;1101;62839;-75